Nearby METAR Reports

 

CYFC - Fredericton Airp, New Brunswick
Distance from station: E 14km
Updated: Mon, 13-Jul-2020 3:00pm ADT
Partly cloudy
Partly cloudy
 Wind from SW
Wind: SW 17 km/h, Gust: 31 km/h
Temperature: 29°C
Heat Index: 29°C
Dew Point: 17°C
Humidity: 48%
Barometer: 1005.8 hPa
Clouds: Partly cloudy
Visibility: 14 km
Cloud details: Partly cloudy 1676 m
2020/07/13 18:00 CYFC 131800Z AUTO 22009G17KT 200V280 9SM SCT055 29/17 A2970 RMK SLP059 DENSITY ALT 1900FT
CYCX - Gagetown (can M, New Brunswick
Distance from station: E 22km
Updated: Mon, 13-Jul-2020 3:00pm ADT
Clear
Clear
 Wind from WSW
Wind: WSW 15 km/h
Temperature: 29°C
Heat Index: 29°C
Dew Point: 18°C
Humidity: 51%
Barometer: 1006.1 hPa
Clouds: Clear
Visibility: 14 km
2020/07/13 18:00 CYCX 131800Z AUTO 24008KT 200V270 9SM CLR 29/18 A2971 RMK SLP061
 
CYQM - Moncton Airport, New Brunswick
Distance from station: ENE 159km
Updated: Mon, 13-Jul-2020 3:00pm ADT
Mostly cloudy
Mostly cloudy
 Wind from WSW
Wind: WSW 24 km/h, Gust: 41 km/h
Temperature: 29°C
Heat Index: 30°C
Dew Point: 19°C
Humidity: 55%
Barometer: 1005.8 hPa
Clouds: Mostly cloudy
Visibility: 24 km
Cloud details: Few Clouds 1036 m
Partly cloudy 4572 m
Mostly cloudy 7925 m
2020/07/13 18:00 CYQM 131800Z 24013G22KT 15SM FEW034 SCT150 BKN260 29/19 A2970 RMK CU2AC1CI2 SLP057 DENSITY ALT 2200FT
CYSJ - Saint John, New Brunswick
Distance from station: SE 88km
Updated: Mon, 13-Jul-2020 3:00pm ADT
Mostly cloudy
Mostly cloudy
 Wind from SSW
Wind: SSW 17 km/h
Temperature: 26°C
Dew Point: 19°C
Humidity: 65%
Barometer: 1007.5 hPa
Clouds: Mostly cloudy
Visibility: 24 km
Cloud details: Few Clouds 610 m
Mostly cloudy 8839 m
2020/07/13 18:00 CYSJ 131800Z 21009KT 15SM FEW020 BKN290 26/19 A2975 RMK CU1CI5 SLP075 DENSITY ALT 1900FT
 
CWPE - Point Lepreau, New Brunswick
Distance from station: SSE 90km
Updated: Mon, 13-Jul-2020 3:00pm ADT

 Wind from S
Wind: S 11 km/h
Temperature: 18°C
Dew Point: 16°C
Humidity: 88%
2020/07/13 18:00 CWPE 131800Z AUTO 17006KT 18/16 RMK AO1 SLP075 T01840157 51001
CYHZ - Halifax Intl Arp, Nova Scotia
Distance from station: ESE 273km
Updated: Mon, 13-Jul-2020 3:00pm ADT
Mostly cloudy
Mostly cloudy
 Wind from SSW
Wind: SSW 20 km/h, Gust: 35 km/h
Temperature: 27°C
Heat Index: 29°C
Dew Point: 20°C
Humidity: 66%
Barometer: 1008.1 hPa
Clouds: Mostly cloudy
Visibility: 24 km
Cloud details: Partly cloudy 1067 m
Mostly cloudy 8230 m
2020/07/13 18:00 CYHZ 131800Z 21011G19KT 15SM SCT035TCU BKN270 27/20 A2977 RMK TCU3CC4 SLP081 DENSITY ALT 2200FT
 
CYZX - Greenwood (can M, Nova Scotia
Distance from station: SE 169km
Updated: Mon, 13-Jul-2020 3:00pm ADT
Mostly cloudy
Mostly cloudy
 Wind from NW
Wind: NW 17 km/h
Temperature: 28°C
Heat Index: 29°C
Dew Point: 20°C
Humidity: 62%
Barometer: 1007.5 hPa
Clouds: Mostly cloudy
Visibility: 24 km
Cloud details: Few Clouds 1676 m
Mostly cloudy 7620 m
2020/07/13 18:00 CYZX 131800Z 31009KT 15SM FEW055 BKN250 28/20 A2975 RMK CU1CI6 SLP073
CYQI - Yarmouth Airport, Nova Scotia
Distance from station: SSE 230km
Updated: Mon, 13-Jul-2020 3:00pm ADT
Overcast
Overcast
 Wind from W
Wind: W 15 km/h
Temperature: 22°C
Dew Point: 19°C
Humidity: 83%
Barometer: 1008.8 hPa
Clouds: Overcast
Visibility: 16 km
Cloud details: Overcast 7620 m
2020/07/13 18:00 CYQI 131800Z 26008KT 10SM OVC250 22/19 A2979 RMK CI8 SLP090 DENSITY ALT 1100FT
 
KHUL - Houlton, Maine, USA
Distance from station: WNW 90km
Updated: Mon, 13-Jul-2020 2:53pm ADT
Partly cloudy
Partly cloudy
 Wind from WSW
Wind: WSW 22 km/h
Temperature: 27°C
Heat Index: 27°C
Dew Point: 15°C
Humidity: 48%
Barometer: 1006.1 hPa
Clouds: Partly cloudy
Visibility: 16 km
Cloud details: Partly cloudy 1981 m
Partly cloudy 2286 m
2020/07/13 17:53 KHUL 131753Z AUTO 25012KT 10SM SCT065 SCT075 27/15 A2971 RMK AO2 SLP059 T02720150 10289 20211 52003
KPQI - Presque Isle, Maine, USA
Distance from station: NW 137km
Updated: Mon, 13-Jul-2020 2:56pm ADT
Mostly cloudy
Mostly cloudy
 Wind from W
Wind: W 11 km/h
Temperature: 26°C
Dew Point: 16°C
Humidity: 54%
Barometer: 1006.8 hPa
Clouds: Mostly cloudy
Visibility: 16 km
Cloud details: Few Clouds 1524 m
Partly cloudy 2134 m
Mostly cloudy 2591 m
2020/07/13 17:56 KPQI 131756Z AUTO 28006KT 10SM FEW050 SCT070 BKN085 26/16 A2973 RMK AO2 SLP087 T02610161 10267 20206 53003
 
KCAR - Caribou, Maine, USA
Distance from station: NW 151km
Updated: Mon, 13-Jul-2020 2:54pm ADT
Mostly cloudy
Mostly cloudy
 Wind from NNW
Wind: NNW 11 km/h
Temperature: 26°C
Dew Point: 16°C
Humidity: 54%
Barometer: 1006.1 hPa
Clouds: Mostly cloudy
Visibility: 16 km
Cloud details: Partly cloudy 2134 m
Mostly cloudy 2591 m
2020/07/13 17:54 KCAR 131754Z AUTO 33006KT 10SM SCT070 BKN085 26/16 A2971 RMK AO2 SLP063 T02560161 10261 20211 53006
KMLT - Millinocket, Maine, USA
Distance from station: W 157km
Updated: Mon, 13-Jul-2020 2:53pm ADT
Partly cloudy
Partly cloudy
 Wind from varies
Wind: varies 6 km/h
Temperature: 27°C
Heat Index: 28°C
Dew Point: 16°C
Humidity: 51%
Barometer: 1007.1 hPa
Clouds: Partly cloudy
Visibility: 16 km
Cloud details: Partly cloudy 1463 m
2020/07/13 17:53 KMLT 131753Z AUTO VRB03KT 10SM SCT048 27/16 A2974 RMK AO2 SLP073 T02670161 10283 20217 58001
 
KBGR - Bangor, Maine, USA
Distance from station: SW 203km
Updated: Mon, 13-Jul-2020 2:53pm ADT
Mostly cloudy
Mostly cloudy
 Wind from SSE
Wind: SSE 20 km/h
Temperature: 29°C
Heat Index: 30°C
Dew Point: 19°C
Humidity: 55%
Barometer: 1006.8 hPa
Clouds: Mostly cloudy
Visibility: 16 km
Cloud details: Partly cloudy 1676 m
Mostly cloudy 3658 m
Mostly cloudy 7620 m
2020/07/13 17:53 KBGR 131753Z 16011KT 10SM SCT055 BKN120 BKN250 29/19 A2973 RMK AO2 SLP063 TCU DSNT N-NE T02890194 10294 20233 58004
KBHB - Bar Harbor, Maine, USA
Distance from station: SW 204km
Updated: Mon, 13-Jul-2020 2:56pm ADT
Clear
Clear
 Wind from S
Wind: S 17 km/h
Temperature: 27°C
Heat Index: 29°C
Dew Point: 20°C
Humidity: 66%
Barometer: 1007.5 hPa
Clouds: Clear
Visibility: 16 km
2020/07/13 17:56 KBHB 131756Z AUTO 19009KT 10SM CLR 27/20 A2975 RMK AO2 SLP075 T02670200 10278 20211 56001
 
CWVU - Brier Island(Aut, Nova Scotia
Distance from station: S 177km
Updated: Mon, 13-Jul-2020 3:00pm ADT

 Wind from SSE
Wind: SSE 13 km/h
Temperature: 16°C
Dew Point: 15°C
Humidity: 94%
2020/07/13 18:00 CWVU 131800Z AUTO 16007KT 16/15 RMK AO1 SLP085 T01620151 53001
CXNP - Nappan (auto), Nova Scotia
Distance from station: E 191km
Updated: Mon, 13-Jul-2020 3:00pm ADT

 Wind from SW
Wind: SW 37 km/h, Gust: 50 km/h
Temperature: 28°C
Heat Index: 28°C
Dew Point: 17°C
Humidity: 51%
2020/07/13 18:00 CXNP 131800Z AUTO 23020G27KT 28/17 RMK AO1 PK WND 23027/1745 SLP068 T02760168 53007
 
CXKT - Kentville (autob, Nova Scotia
Distance from station: ESE 193km
Updated: Mon, 13-Jul-2020 3:00pm ADT

 Wind from W
Wind: W 15 km/h
Temperature: 28°C
Heat Index: 29°C
Dew Point: 18°C
Humidity: 55%
2020/07/13 18:00 CXKT 131800Z AUTO 26008KT 28/18 RMK AO1 SLP070 T02750178 53004
CWKG - Kejimkujik (au8), Nova Scotia
Distance from station: SE 197km
Updated: Mon, 13-Jul-2020 3:00pm ADT

 Wind from WNW
Wind: WNW 11 km/h
Temperature: 29°C
Heat Index: 31°C
Dew Point: 20°C
Humidity: 58%
2020/07/13 18:00 CWKG 131800Z AUTO 29006KT 29/20 RMK AO1 SLP080 T02870201 55000
 
KFVE - Frenchville, Maine, USA
Distance from station: NW 201km
Updated: Mon, 13-Jul-2020 2:53pm ADT
Overcast
Overcast
 Wind from NW
Wind: NW 11 km/h
Temperature: 22°C
Dew Point: 15°C
Humidity: 65%
Barometer: 1007.5 hPa
Clouds: Overcast
Visibility: 16 km
Cloud details: Overcast 1829 m
2020/07/13 17:53 KFVE 131753Z AUTO 31006KT 10SM OVC060 22/15 A2975 RMK AO2 SLP069 60000 T02220150 10239 20189 53013
CZBF - Bathurst Arpt(Aw, New Brunswick
Distance from station: NNE 208km
Updated: Mon, 13-Jul-2020 3:00pm ADT
Overcast
Overcast
 Wind from W
Wind: W 20 km/h
Temperature: 25°C
Dew Point: 17°C
Humidity: 61%
Barometer: 1005.4 hPa
Clouds: Overcast
Visibility: 14 km
Cloud details: Overcast 1463 m
2020/07/13 18:00 CZBF 131800Z AUTO 26011KT 9SM OVC048 25/17 A2969 RMK SLP056 DENSITY ALT 1600FT
 
CERM - Edmunston, New Brunswick
Distance from station: NW 213km
Updated: Mon, 13-Jul-2020 3:00pm ADT

 Wind from NW
Wind: NW 9 km/h
Temperature: 23°C
Dew Point: 17°C
Humidity: 69%
2020/07/13 18:00 CERM 131800Z AUTO 31005KT 23/17 RMK AO1 SLP068 T02330169 52009
KGNR - Greenville, Maine, USA
Distance from station: W 226km
Updated: Mon, 13-Jul-2020 2:56pm ADT

 Wind from N
Wind: N 9 km/h
Temperature: 24°C
Dew Point: 17°C
Humidity: 65%
Barometer: 1007.5 hPa
2020/07/13 17:56 KGNR 131756Z AUTO 35005KT 24/17 A2975 RMK AO1 SLP068 T02390167 10261 20200 58004 $
 
CWSD - Summerside (auto, PEI
Distance from station: ENE 228km
Updated: Mon, 13-Jul-2020 3:00pm ADT

 Wind from W
Wind: W 24 km/h, Gust: 35 km/h
Temperature: 29°C
Heat Index: 29°C
Dew Point: 18°C
Humidity: 51%
2020/07/13 18:00 CWSD 131800Z AUTO 26013G19KT 29/18 RMK AO1 PK WND 26020/1704 SLP055 T02860183 53006
K40B - Clayton Lake, Maine, USA
Distance from station: WNW 233km
Updated: Mon, 13-Jul-2020 3:16pm ADT

 Wind from varies
Wind: varies 7 km/h, Gust: 26 km/h
Temperature: 26°C
Dew Point: 13°C
Humidity: 45%
Barometer: 1007.5 hPa
2020/07/13 18:16 K40B 131816Z AUTO VRB04G14KT 26/13 A2975 RMK AO1 SLP064 T02580133 10261 20204 52003
 
CZCR - Charlo Airport, New Brunswick
Distance from station: N 236km
Updated: Mon, 13-Jul-2020 3:00pm ADT

 Wind from W
Wind: W 20 km/h, Gust: 30 km/h
Temperature: 23°C
Dew Point: 16°C
Humidity: 65%
2020/07/13 18:00 CZCR 131800Z AUTO 28011G16KT 23/16 RMK AO1 PK WND 28020/1703 SLP052 T02340164 53016
CWNE - North Point (aut, Ontario
Distance from station: NE 246km
Updated: Mon, 13-Jul-2020 3:00pm ADT

 Wind from WSW
Wind: WSW 15 km/h
Temperature: 23°C
Dew Point: 19°C
Humidity: 78%
2020/07/13 18:00 CWNE 131800Z AUTO 25008KT 23/19 RMK AO1 SLP043 T02310194 53012
 
CXLB - Lunenburg, Nova Scotia
Distance from station: SE 250km
Updated: Mon, 13-Jul-2020 3:00pm ADT

 Wind from S
Wind: S 28 km/h
Temperature: 23°C
Dew Point: 19°C
Humidity: 78%
2020/07/13 18:00 CXLB 131800Z AUTO 18015KT 23/19 RMK AO1 PK WND 18018/1757 SLP073 T02300193 51001
CZDB - Debert, Nova Scotia
Distance from station: E 255km
Updated: Mon, 13-Jul-2020 3:00pm ADT

 Wind from W
Wind: W 20 km/h
Temperature: 27°C
Heat Index: 28°C
Dew Point: 19°C
Humidity: 62%
2020/07/13 18:00 CZDB 131800Z AUTO 26011KT 27/19 RMK AO1 SLP075 T02730188 52003
 
CWOC - New Carlisle1, Quebec
Distance from station: NNE 262km
Updated: Mon, 13-Jul-2020 3:00pm ADT

 Wind from W
Wind: W 20 km/h, Gust: 33 km/h
Temperature: 23°C
Dew Point: 16°C
Humidity: 65%
2020/07/13 18:00 CWOC 131800Z AUTO 28011G18KT 23/16 RMK AO1 PK WND 26021/1738 SLP043 T02330156 53018
CWWE - Western Head (ma, Nova Scotia
Distance from station: SE 264km
Updated: Mon, 13-Jul-2020 3:00pm ADT

 Wind from SW
Wind: SW 9 km/h
Temperature: 18°C
Dew Point: 15°C
Humidity: 83%
2020/07/13 18:00 CWWE 131800Z AUTO 23005KT 18/15 RMK AO1 SLP084 T01780150 55000
 
KRKD - Rockland/Knox, Maine, USA
Distance from station: SW 274km
Updated: Mon, 13-Jul-2020 2:56pm ADT
Few Clouds
Few Clouds
 Wind from S
Wind: S 15 km/h
Temperature: 25°C
Dew Point: 19°C
Humidity: 69%
Barometer: 1007.8 hPa
Clouds: Few Clouds
Visibility: 16 km
Cloud details: Few Clouds 3048 m
2020/07/13 17:56 KRKD 131756Z AUTO 19008KT 10SM FEW100 25/19 A2976 RMK AO2 SLP078 T02500194 10267 20228 53000
CAHR - Harrington Cda, Ontario
Distance from station: ENE 277km
Updated: Mon, 13-Jul-2020 3:00pm ADT

 Wind from WSW
Wind: WSW 26 km/h, Gust: 39 km/h
Temperature: 28°C
Heat Index: 29°C
Dew Point: 19°C
Humidity: 58%
2020/07/13 18:00 CAHR 131800Z AUTO 25014G21KT 28/19 RMK AO1 PK WND 24021/1756 SLP058 T02760187 53009
 
KWVL - Waterville, Maine, USA
Distance from station: WSW 277km
Updated: Mon, 13-Jul-2020 2:56pm ADT
Clear
Clear
 Wind from SSW
Wind: SSW 9 km/h
Temperature: 27°C
Heat Index: 28°C
Dew Point: 18°C
Humidity: 58%
Barometer: 1006.4 hPa
Clouds: Clear
Visibility: 16 km
2020/07/13 17:56 KWVL 131756Z AUTO 21005KT 10SM CLR 27/18 A2972 RMK AO2 SLP088 T02670183 10283 20239 58004
CYYG - Charlottetown Ar, PEI
Distance from station: E 280km
Updated: Mon, 13-Jul-2020 3:00pm ADT
Mostly cloudy
Mostly cloudy
 Wind from WSW
Wind: WSW 26 km/h, Gust: 41 km/h
Temperature: 28°C
Heat Index: 29°C
Dew Point: 19°C
Humidity: 58%
Barometer: 1005.8 hPa
Clouds: Mostly cloudy
Visibility: 24 km
Cloud details: Few Clouds 914 m
Mostly cloudy 8534 m
2020/07/13 18:00 CYYG 131800Z 24014G22KT 15SM FEW030 BKN280 28/19 A2970 RMK CU1CI6 CU TR SLP060 DENSITY ALT 2000FT
 
CXMI - Mcnabs Island, Nova Scotia
Distance from station: ESE 284km
Updated: Mon, 13-Jul-2020 3:00pm ADT

 Wind from SW
Wind: SW 15 km/h
Temperature: 26°C
2020/07/13 18:00 CXMI 131800Z AUTO 22008KT 26/ RMK AO1 T0258
KAUG - Augusta, Maine, USA
Distance from station: SW 298km
Updated: Mon, 13-Jul-2020 2:53pm ADT
Mostly cloudy
Mostly cloudy
 Wind from S
Wind: S 13 km/h
Temperature: 27°C
Heat Index: 28°C
Dew Point: 19°C
Humidity: 62%
Barometer: 1007.8 hPa
Clouds: Mostly cloudy
Visibility: 16 km
Cloud details: Partly cloudy 1158 m
Mostly cloudy 3658 m
2020/07/13 17:53 KAUG 131753Z AUTO 18007KT 10SM SCT038 BKN120 27/19 A2976 RMK AO2 SLP075 T02670194 10278 20239 58002
 
CWST - La Pocatiere, Quebec
Distance from station: NW 303km
Updated: Mon, 13-Jul-2020 3:00pm ADT

 Wind from WNW
Wind: WNW 6 km/h
Temperature: 24°C
Dew Point: 16°C
Humidity: 61%
2020/07/13 18:00 CWST 131800Z AUTO 30003KT 24/16 RMK AO1 SLP068 T02370163 51009
CWNH - Riviere Du Loup, Quebec
Distance from station: NW 304km
Updated: Mon, 13-Jul-2020 3:00pm ADT

 Wind from N
Wind: N 7 km/h
Temperature: 21°C
Dew Point: 16°C
Humidity: 73%
2020/07/13 18:00 CWNH 131800Z AUTO 35004KT 21/16 RMK AO1 SLP075 T02130157 53013
 
CWBK - Caribou Point(Ma, Nova Scotia
Distance from station: E 312km
Updated: Mon, 13-Jul-2020 3:00pm ADT

 Wind from WSW
Wind: WSW 19 km/h, Gust: 31 km/h
Temperature: 29°C
Heat Index: 29°C
Dew Point: 17°C
Humidity: 48%
2020/07/13 18:00 CWBK 131800Z AUTO 25010G17KT 29/17 RMK AO1 2PAST HR 3005 PK WND 24017/1747 SLP060 P0001 T02910174 50013
CWHV - Beauceville, Quebec
Distance from station: W 317km
Updated: Mon, 13-Jul-2020 3:00pm ADT

 Wind from WSW
Wind: WSW 7 km/h
Temperature: 25°C
Dew Point: 15°C
Humidity: 54%
2020/07/13 18:00 CWHV 131800Z AUTO 25004KT 25/15 RMK AO1 SLP071 T02540149 50001
 
KIWI - Wiscasset, Maine, USA
Distance from station: SW 318km
Updated: Mon, 13-Jul-2020 2:53pm ADT
Overcast
Overcast
 Wind from S
Wind: S 6 km/h
Temperature: 25°C
Dew Point: 17°C
Humidity: 61%
Barometer: 1008.1 hPa
Clouds: Overcast
Visibility: 16 km
Cloud details: Overcast 2591 m
2020/07/13 17:53 KIWI 131753Z AUTO 19003KT 10SM OVC085 25/17 A2977 RMK AO2 SLP081 6//// T02500172 10272 20228 52004